Airfield :
LOGIN :

Register | Disclaimer

   EN    FR    IT 

 










Legend :    VFR   Marginal VFR   IFR   Intensive IFR   Very Intensive IFR
Visi :
Ceiling :
>= 8 km
>= 3000ft
5 to 8 km
1000 to 3000 ft
1500m to 5 km
500 to 1000 ft
800 to 1500m
200 to 500 ft
< 800m
< 200 ft
Symbols :   Thunderstorms  Fog  Heavy snow  Heavy precipitations  Wind > 20 kt
SIGMETs :     Misc.  Thunderstorms  Icing  Turbulence  Mountain Waves  Volcanic Ashes







- Airport Elevation : 610 ft
- IATA code : VXO


ESMX - Växjö Kronoberg

CURRENT METAR :
  • 141720Z 21005KT 9999 BKN030 08/08 Q1026

EXPIRED METARs :
  • 141650Z 18005KT 9999 BKN029 07/07 Q1026
  • 141620Z 19004KT 9999 BKN028 08/07 Q1025
  • 141550Z 21004KT 9999 FEW014 OVC030 08/08 Q1025
  • 141520Z AUTO 22004KT 9999 SCT013/// OVC031/// 08/08 Q1025
  • 141450Z 22003KT 9999 FEW016 OVC032 09/08 Q1025

TAF TAF ESMX
Valid from the 14 at 15:00 until the 14 at 23:00 UTC


141430Z 1415/1423 25004KT 9999 SCT010 BKN030
PROB40 1416/1423 4000 BR
No reported NOTAMs for that airfield.



MET'MAP, your aeronautical weather chart ! - Copyright ORBIFLY December 2007 - Disclaimer

ORBIFLY MET'MAP TEAM :

Programming & Development : Alexandra Zaïnal
Concept & Development : Baudouin d'Aumeries
Co-Development & Prog : Marc-Olivier Méhu
Technical & hardware support : Manuel Goepfert

Contact : metmap@orbifly.com




SOURCES & CREDITS :

   NOAA